Latest Weather Observations for Coober Pedy Airport

IDS60801

Issued at 2:21 pm CST Thursday 1 October 2020 (issued every 10 minutes, with the page automatically refreshed every 10 minutes)

About weather observations | Map of weather stations | Latest weather observations for SA | Other Formats
Station Details ID: 016090 Name: COOBER PEDY AIRPORT Lat: -29.03 Lon: 134.72 Height: 225.0 m
Data from the previous 72 hours. | See also: Recent months at Coober Pedy Airport
Date/Time
CST
Temp
°C
App
Temp
°C
Dew
Point
°C
Rel
Hum
%
Delta-T
°C
Wind Press
QNH
hPa
Press
MSL
hPa
Rain since
9am
mm
Dir  Spd
km/h
Gust
km/h
Spd
kts
Gust
kts
01/02:00pm 32.4 28.4 5.1 18 14.6 NNW 15 30 8 16 1016.9 1016.1 0.0
01/01:30pm 32.2 28.8 5.7 19 14.2 NNW 13 26 7 14 1017.4 1016.5 0.0
01/01:00pm 31.8 28.1 6.1 20 13.9 NW 15 30 8 16 1017.7 1016.8 0.0
01/12:30pm 30.6 26.3 5.1 20 13.4 NNW 17 28 9 15 1018.0 1017.1 0.0
01/12:00pm 29.7 25.1 5.7 22 12.7 NW 19 30 10 16 1018.4 1017.5 0.0
01/11:30am 30.0 25.4 6.6 23 12.6 NNW 20 32 11 17 1018.7 1017.9 0.0
01/11:00am 28.9 24.1 5.7 23 12.3 NNW 20 32 11 17 1019.1 1018.3 0.0
01/10:30am 27.5 22.3 5.7 25 11.4 NNW 22 30 12 16 1019.3 1018.5 0.0
01/10:00am 26.2 21.2 6.3 28 10.5 NNW 22 30 12 16 1019.4 1018.6 0.0
01/09:30am 25.1 19.7 6.3 30 9.8 NNW 24 32 13 17 1019.5 1018.7 0.0
01/09:00am 23.8 17.5 5.7 31 9.3 NNW 28 35 15 19 1019.5 1019.0 0.0
01/08:30am 22.2 16.9 6.8 37 8.0 NNW 24 33 13 18 1019.4 1018.9 0.0
01/08:00am 20.8 16.3 7.1 41 7.1 NNW 20 26 11 14 1019.1 1018.6 0.0
01/07:30am 19.5 16.1 7.6 46 6.1 N 15 20 8 11 1018.9 1018.4 0.0
01/07:00am 17.6 14.6 7.6 52 5.1 N 13 15 7 8 1018.6 1018.0 0.0
01/06:30am 16.2 12.3 7.2 55 4.5 N 17 19 9 10 1018.1 1017.5 0.0
01/06:00am 15.6 11.4 7.4 58 4.1 NNW 19 20 10 11 1017.8 1017.2 0.0
01/05:30am 15.0 11.4 6.6 57 4.1 NW 15 17 8 9 1017.5 1016.9 0.0
01/05:00am 15.4 11.7 6.2 54 4.5 NW 15 20 8 11 1016.9 1016.4 0.0
01/04:30am 15.8 12.1 6.3 53 4.7 WNW 15 22 8 12 1016.7 1016.2 0.0
01/04:00am 16.1 10.5 5.4 49 5.2 NNE 24 26 13 14 1016.1 1015.6 0.0
01/03:30am 16.2 11.4 4.6 46 5.5 NNE 19 20 10 11 1015.9 1015.4 0.0
01/03:00am 16.4 11.9 4.1 44 5.8 NNE 17 20 9 11 1015.8 1015.3 0.0
01/02:30am 16.5 11.9 3.9 43 5.9 NNE 17 19 9 10 1016.0 1015.5 0.0
01/02:00am 16.8 11.9 4.2 43 6.0 NNE 19 20 10 11 1016.1 1015.6 0.0
01/01:30am 16.8 12.7 4.5 44 5.9 NE 15 17 8 9 1016.4 1015.9 0.0
01/01:00am 17.4 13.0 5.0 44 6.0 NNE 17 17 9 9 1016.7 1016.2 0.0
01/12:30am 18.1 13.4 5.3 43 6.3 NNE 19 19 10 10 1016.8 1016.3 0.0
01/12:00am 18.8 14.2 5.6 42 6.5 NE 19 20 10 11 1017.0 1016.5 0.0
 
Date/Time
CST
Temp
°C
App
Temp
°C
Dew
Point
°C
Rel
Hum
%
Delta-T
°C
Wind Press
QNH
hPa
Press
MSL
hPa
Rain since
9am
mm
Dir  Spd
km/h
Gust
km/h
Spd
kts
Gust
kts
30/11:30pm 19.1 15.3 5.6 41 6.7 NNE 15 15 8 8 1017.0 1016.5 0.0
30/11:00pm 19.7 16.2 5.4 39 7.1 NNE 13 13 7 7 1017.0 1016.5 0.0
30/10:30pm 20.6 19.2 5.4 37 7.6 NW 2 9 1 5 1017.1 1016.6 0.0
30/10:00pm 21.6 20.7 5.9 36 8.0 CALM 0 0 0 0 1017.2 1016.7 0.0
30/09:30pm 21.7 20.8 6.0 36 8.0 CALM 0 0 0 0 1017.1 1016.6 0.0
30/09:00pm 21.6 20.7 5.9 36 8.0 CALM 0 0 0 0 1016.9 1016.4 0.0
30/08:30pm 21.9 19.8 5.8 35 8.2 SW 6 7 3 4 1016.5 1016.0 0.0
30/08:00pm 22.5 20.3 5.4 33 8.6 SW 6 7 3 4 1016.2 1015.7 0.0
30/07:30pm 23.2 21.4 5.2 31 9.1 SW 4 7 2 4 1015.8 1015.3 0.0
30/07:00pm 24.3 21.5 5.1 29 9.8 WSW 9 11 5 6 1015.4 1014.9 0.0
30/06:30pm 25.9 22.3 4.9 26 10.7 SW 13 15 7 8 1015.1 1014.6 0.0
30/06:00pm 27.0 22.6 4.7 24 11.4 WSW 17 24 9 13 1014.8 1014.3 0.0
30/05:30pm 27.6 22.8 4.6 23 11.8 WSW 19 26 10 14 1014.5 1013.9 0.0
30/05:00pm 27.9 24.2 4.2 22 12.1 W 13 24 7 13 1014.5 1013.9 0.0
30/04:30pm 27.7 22.9 4.7 23 11.9 SW 19 24 10 13 1014.3 1013.7 0.0
30/04:00pm 28.4 22.9 4.0 21 12.5 WSW 22 32 12 17 1014.3 1013.7 0.0
30/03:30pm 28.3 25.5 5.2 23 12.1 SW 9 20 5 11 1014.3 1013.7 0.0
30/03:00pm 28.0 23.1 4.3 22 12.2 WSW 19 28 10 15 1014.4 1013.8 0.0
30/02:30pm 28.0 23.1 5.0 23 11.9 WSW 20 32 11 17 1014.7 1014.1 0.0
30/02:00pm 26.6 22.9 4.4 24 11.3 SW 13 24 7 13 1015.2 1014.7 0.0
30/01:30pm 27.0 22.3 5.3 25 11.3 WSW 19 28 10 15 1015.5 1015.0 0.0
30/01:00pm 26.2 23.0 5.2 26 10.8 W 11 20 6 11 1015.7 1015.2 0.0
30/12:30pm 25.2 21.3 5.4 28 10.2 WNW 15 20 8 11 1016.1 1015.6 0.0
30/12:00pm 25.0 21.8 6.7 31 9.6 WNW 13 20 7 11 1016.7 1016.2 0.0
30/11:30am 23.4 20.7 5.8 32 9.0 NW 9 17 5 9 1017.1 1016.6 0.0
30/11:00am 22.9 20.7 6.2 34 8.6 NW 7 17 4 9 1017.6 1017.0 0.0
30/10:30am 21.9 19.2 7.3 39 7.6 NNW 11 19 6 10 1017.9 1017.3 0.0
30/10:00am 20.6 17.7 6.5 40 7.2 NNW 11 15 6 8 1018.0 1017.4 0.0
30/09:30am 19.5 17.9 7.9 47 6.0 NW 6 11 3 6 1017.7 1017.1 0.0
30/09:00am 18.3 18.2 9.4 56 4.7 CALM 0 0 0 0 1017.8 1017.2 0.0
30/08:30am 16.0 14.8 9.7 66 3.3 NE 6 9 3 5 1017.6 1017.0 0.0
30/08:00am 15.3 14.2 10.5 73 2.6 ESE 7 9 4 5 1017.1 1016.6 0.0
30/07:30am 13.5 11.9 10.1 80 1.8 SSE 9 13 5 7 1016.7 1016.2 0.0
30/07:00am 10.6 8.8 9.5 93 0.6 S 9 11 5 6 1016.5 1016.0 0.0
30/06:30am 9.5 8.8 8.6 94 0.4 NE 2 6 1 3 1016.5 1016.0 0.0
30/06:00am 9.0 7.4 7.9 93 0.5 ESE 6 7 3 4 1016.3 1015.8 0.0
30/05:30am 10.7 9.3 9.5 92 0.6 SE 7 7 4 4 1016.2 1015.7 0.0
30/05:00am 10.7 8.9 9.3 91 0.7 SE 9 11 5 6 1016.0 1015.5 0.0
30/04:30am 10.8 9.0 9.4 91 0.7 SE 9 11 5 6 1015.7 1015.2 0.0
30/04:00am 10.7 8.8 9.0 89 0.9 SSE 9 13 5 7 1015.8 1015.3 0.0
30/03:30am 11.0 8.3 9.1 88 1.0 S 13 13 7 7 1015.8 1015.3 0.0
30/03:00am 11.8 8.4 9.2 84 1.3 S 17 19 9 10 1016.0 1015.5 0.0
30/02:30am 11.9 8.8 8.9 82 1.5 SSW 15 17 8 9 1016.3 1015.8 0.0
30/02:00am 12.3 9.2 8.8 79 1.8 SSW 15 17 8 9 1016.4 1015.9 0.0
30/01:30am 13.4 9.9 8.9 74 2.3 SSW 17 20 9 11 1016.4 1015.9 0.0
30/01:00am 13.4 10.0 9.1 75 2.2 SSW 17 19 9 10 1016.5 1016.0 0.0
30/12:30am 14.4 10.6 9.2 71 2.7 SSW 19 20 10 11 1016.7 1016.2 0.0
30/12:00am 14.6 10.9 9.4 71 2.7 SSW 19 20 10 11 1016.6 1016.1 0.0
 
Date/Time
CST
Temp
°C
App
Temp
°C
Dew
Point
°C
Rel
Hum
%
Delta-T
°C
Wind Press
QNH
hPa
Press
MSL
hPa
Rain since
9am
mm
Dir  Spd
km/h
Gust
km/h
Spd
kts
Gust
kts
29/11:30pm 14.7 11.5 9.9 73 2.5 SSW 17 19 9 10 1016.7 1016.2 0.0
29/11:00pm 15.6 12.4 9.9 69 3.0 SSW 17 19 9 10 1016.6 1016.1 0.0
29/10:30pm 15.7 13.0 10.5 71 2.8 SW 15 17 8 9 1016.6 1016.1 0.0
29/10:00pm 16.1 13.1 10.8 71 2.9 SW 17 19 9 10 1016.4 1015.9 0.0
29/09:30pm 16.3 13.5 11.2 72 2.8 SW 17 17 9 9 1016.4 1015.9 0.0
29/09:00pm 17.4 14.6 11.2 67 3.4 SW 17 20 9 11 1016.3 1015.8 0.0
29/08:30pm 17.1 15.0 11.2 68 3.2 WSW 13 15 7 8 1015.9 1015.4 0.0
29/08:00pm 18.0 16.2 10.9 63 3.9 WSW 11 13 6 7 1015.7 1015.2 0.0
29/07:30pm 19.3 16.3 10.6 57 4.8 SW 17 20 9 11 1015.0 1014.5 0.0
29/07:00pm 20.3 16.2 10.1 52 5.6 SW 22 26 12 14 1014.5 1013.9 0.0
29/06:30pm 21.4 16.8 9.6 47 6.4 SW 24 33 13 18 1014.1 1013.5 0.0
29/06:00pm 22.4 16.9 9.2 43 7.2 SW 28 37 15 20 1013.8 1013.2 0.0
29/05:30pm 22.9 16.4 9.0 41 7.5 SW 33 44 18 24 1013.6 1013.0 0.0
29/05:00pm 23.3 17.1 9.3 41 7.6 SW 32 43 17 23 1013.2 1012.6 0.0
29/04:30pm 23.6 17.7 11.0 45 7.1 SW 33 41 18 22 1013.0 1012.4 0.0
29/04:00pm 23.5 17.8 11.2 46 6.9 SW 32 43 17 23 1012.5 1012.0 0.0
29/03:30pm 22.4 18.9 12.1 52 5.9 SW 22 32 12 17 1012.6 1012.1 0.0
29/03:00pm 21.8 17.9 12.1 54 5.5 SW 24 32 13 17 1012.8 1012.2 0.0
29/02:30pm 21.6 18.8 13.2 59 4.9 WSW 20 30 11 16 1013.2 1012.6 0.0
29/02:00pm 19.5 18.7 15.2 76 2.6 W 13 20 7 11 1013.7 1013.1 0.0
29/01:42pm 17.6 18.0 15.2 86 1.4 W 7 11 4 6 1013.9 1013.3 0.0
29/01:31pm 16.8 16.7 15.0 89 1.1 WSW 9 13 5 7 1014.2 1013.6 0.0
29/01:30pm 16.7 16.7 15.1 90 0.9 W 9 13 5 7 1014.2 1013.6 0.0
29/01:00pm 15.9 14.3 12.8 82 1.7 WNW 13 15 7 8 1014.0 1013.4 0.0
29/12:30pm 17.4 13.3 11.4 68 3.3 NNW 24 35 13 19 1014.6 1014.0 0.0
29/12:00pm 18.6 13.4 7.4 48 5.7 N 24 30 13 16 1015.4 1014.9 0.0
29/11:30am 19.1 14.3 7.2 46 6.1 NNE 22 30 12 16 1015.0 1014.5 0.0
29/11:00am 17.8 13.9 8.6 55 4.8 NE 19 22 10 12 1014.6 1014.0 0.0
29/10:30am 16.3 13.9 11.5 73 2.6 NE 15 17 8 9 1015.3 1014.8 0.0
29/10:00am 15.9 12.5 11.1 73 2.6 NNE 20 26 11 14 1016.0 1015.5 0.0
29/09:30am 15.5 11.9 10.5 72 2.7 NNE 20 24 11 13 1016.2 1015.7 0.0
29/09:00am 15.2 11.8 9.1 67 3.2 NE 17 22 9 12 1016.4 1015.9 1.4
29/08:30am 14.9 11.8 10.3 74 2.4 E 17 22 9 12 1016.1 1015.6 1.4
29/08:00am 14.5 13.0 10.5 77 2.1 ENE 9 13 5 7 1016.1 1015.6 1.2
29/07:30am 14.5 11.3 9.9 74 2.4 ENE 17 20 9 11 1015.6 1015.1 0.6
29/07:00am 15.7 12.7 9.4 66 3.3 E 15 19 8 10 1015.2 1014.7 0.2
29/06:30am 17.0 12.8 5.9 48 5.5 E 17 20 9 11 1015.0 1014.5 0.0
29/06:00am 18.1 13.4 0.7 31 7.8 E 15 20 8 11 1015.2 1014.7 0.0
29/05:30am 18.5 14.1 0.2 29 8.1 ENE 13 17 7 9 1014.9 1014.4 0.0
29/05:00am 18.9 13.2 0.5 29 8.2 E 20 26 11 14 1014.2 1013.6 0.0
29/04:30am 18.8 12.9 1.8 32 7.8 SE 22 30 12 16 1012.3 1011.8 0.0
29/04:00am 19.3 15.2 -0.1 27 8.6 ENE 11 19 6 10 1014.2 1013.6 0.0
29/03:30am 19.9 14.0 -0.7 25 9.1 ENE 20 26 11 14 1014.4 1013.8 0.0
29/03:00am 20.8 15.0 -1.7 22 9.8 E 19 24 10 13 1014.0 1013.4 0.0
29/02:30am 21.0 14.5 -2.8 20 10.1 ENE 22 28 12 15 1014.4 1013.8 0.0
29/02:00am 21.0 15.0 -2.8 20 10.1 ENE 19 22 10 12 1014.8 1014.3 0.0
29/01:30am 21.5 15.5 -3.1 19 10.5 ENE 19 24 10 13 1015.2 1014.7 0.0
29/01:00am 21.5 15.6 -2.4 20 10.3 ENE 19 24 10 13 1015.8 1015.3 0.0
29/12:30am 21.9 15.2 -1.4 21 10.3 NE 24 32 13 17 1016.1 1015.6 0.0
29/12:00am 22.2 13.7 -1.8 20 10.5 NNE 33 52 18 28 1016.8 1016.3 0.0
 
Date/Time
CST
Temp
°C
App
Temp
°C
Dew
Point
°C
Rel
Hum
%
Delta-T
°C
Wind Press
QNH
hPa
Press
MSL
hPa
Rain since
9am
mm
Dir  Spd
km/h
Gust
km/h
Spd
kts
Gust
kts
28/11:30pm 20.7 13.6 -1.1 23 9.6 NE 26 35 14 19 1016.5 1016.0 0.0
28/11:00pm 21.4 15.0 -1.8 21 10.1 NE 22 28 12 15 1016.4 1015.9 0.0
28/10:30pm 22.0 14.9 -4.1 17 10.9 ENE 24 30 13 16 1016.0 1015.5 0.0
28/10:00pm 22.3 14.5 -3.9 17 11.1 ENE 28 33 15 18 1015.5 1015.0 0.0
28/09:30pm 22.7 14.2 -3.6 17 11.2 ENE 32 39 17 21 1015.1 1014.6 0.0
28/09:00pm 23.1 14.5 -4.1 16 11.5 ENE 32 41 17 22 1015.2 1014.7 0.0
28/08:30pm 23.5 14.4 -3.7 16 11.7 ENE 35 43 19 23 1014.7 1014.1 0.0
28/08:00pm 24.0 15.2 -4.2 15 12.0 ENE 33 41 18 22 1014.3 1013.7 0.0
28/07:30pm 24.7 15.2 -3.6 15 12.3 ENE 37 50 20 27 1014.0 1013.4 0.0
28/07:00pm 25.6 16.5 -3.8 14 12.8 ENE 35 44 19 24 1013.6 1013.0 0.0
28/06:30pm 27.0 18.5 -3.7 13 13.6 ENE 32 41 17 22 1013.3 1012.7 0.0
28/06:00pm 28.2 18.4 -2.8 13 14.1 NE 39 52 21 28 1012.8 1012.2 0.0
28/05:30pm 29.7 20.7 -2.7 12 14.9 NE 35 44 19 24 1012.9 1012.3 0.0
28/05:00pm 29.6 21.2 -2.8 12 14.8 NE 32 43 17 23 1013.4 1012.8 0.0
28/04:30pm 31.0 22.7 -1.7 12 15.4 NNE 32 44 17 24 1013.4 1012.8 0.0
28/04:00pm 30.5 22.5 -2.1 12 15.2 NE 30 41 16 22 1013.7 1013.1 0.0
28/03:30pm 31.4 23.9 -1.4 12 15.6 NNE 28 41 15 22 1014.1 1013.5 0.0
28/03:00pm 30.2 22.2 -2.3 12 15.1 NNE 30 44 16 24 1014.7 1014.1 0.0
28/02:30pm 30.3 22.3 -2.2 12 15.1 NNE 30 41 16 22 1015.1 1014.6 0.0

Other formats

Comma delimited format used in spreadsheet applications
http://www.bom.gov.au/fwo/IDS60801/IDS60801.95458.axf

JavaScript Object Notation format (JSON) in row-major order
http://www.bom.gov.au/fwo/IDS60801/IDS60801.95458.json

Data quality

Most of these data are generated automatically and are frequently updated. Quality checks on data are not normally performed. It is possible for incorrect values to appear. Refer to information at About Latest Weather Observations and please check the disclaimer before using these data.